Accueil
METAR-TAF:

METAR-TAF

Aéroports :

Aéroport international Shirak

Gyumri, Arménie

latitude: 40-45-01N, longitude: 043-51-33E, altitude: 1524 m

Observation

Le bulletin a été fait il y a 37 minutes, à 14:00 UTC
Vent 6 kt de sud/sud-ouest
Température 22°C
Humidité 19%
Pression 1017 hPa
Visibilité 10 km ou plus

METAR: UDSG 171400Z 21006KT 9999 NSC 22/M03 Q1017 NOSIG

Heure: 18:37 (14:37 UTC)

Prévision

Le bulletin a été fait il y a 3 heures et 39 minutes, à 10:58 UTC
Prévision valable du 17 à 12 UTC au 18 à 12 UTC
Vent 6 kt de direction variable
Visibilité 10 km ou plus
Quelques nuages à une hauteur de 5000 ft

TAF: UDSG 171058Z 1712/1812 VRB06KT 9999 FEW050

Observations et prévisions météorologiques de plus de 4000 aéroports (messages METAR et TAF).

Les stations disponibles sont représentées par des disques jaunes et rouges sur la carte.

Passer la souris dessus pour voir le nom de la station.

Cliquer dessus pour voir les observations et prévisions météorologiques.

Pour changer de carte: cliquez sur les boutons verts avec une croix noire pour zoomer, sur le bouton vert avec un tiret pour effectuer un zoom arrière, ou sur les flèches vertes pour les cartes adjacentes.


METAR-TAF: